Aérodrome :
LOGIN :

S'inscrire | Disclaimer

   EN    FR    IT 

 










Légende :    VFR   VFR Marginal   IFR   IFR Intensif   IFR Très Intensif
Visi : 
Plafond : 
>= 8 km
>= 3000ft
5 à 8 km
1000 à 3000 ft
1500m à 5 km
500 à 1000 ft
800 à 1500m
200 à 500 ft
< 800m
< 200 ft
Symboles :   Orages  Brouillard  Fortes neiges  Fortes précipitations  Vent > 20 kt
SIGMETs :   Divers  Orages  Givrage  Turbulence  Onde Orograph.  Cendres Volcan.






- Altitude de l'aérodrome : 286 ft
- Code IATA : FFD


EGVA - RAF Fairford

DERNIER METAR :
  • 260455Z AUTO 13006KT 9999 -DZ OVC010 12/11 A2978 RMK AO2 RAE0355DZB0355E02RAB02E21DZB21E36RAB36E52DZB52 SLP087 P0002 T01210110 $

METARs EXPIRÉS :
  • 260420Z AUTO 13007KT 9999 -RA BKN010 OVC022 12/11 A2978 RMK AO2 RAE0355DZB0355E02RAB02 CIG 010V023 SLP088 $
  • 260355Z AUTO 10005KT 9999 -RA SCT008 OVC027 12/11 A2978 RMK AO2 RAE00DZB00E44RAB44 CIG 025 RWY09 SLP088 P0000 T01190108 $
  • 260340Z AUTO 10005KT 9999 -DZ SCT007 OVC027 12/11 A2979 RMK AO2 RAE00DZB00 CIG 008V027 OVC V BKN CIG 010 RWY09 SLP091 $
  • 260320Z AUTO 10006KT 9999 -DZ SCT008 BKN029 OVC035 12/11 A2980 RMK AO2 RAE00DZB00 CIG 029V035 SLP094 $
  • 260255Z AUTO 09005KT 9999 -RA OVC040 12/11 A2980 RMK AO2 RAE12DZB12E33RAB33 SLP094 P0002 60009 T01160105 57024 $
  • 260155Z AUTO 08005KT 9999 -RA BKN055 BKN080 12/11 A2982 RMK AO2 SLP101 P0001 T01190106 $
  • 260055Z AUTO 13004KT 9999 RA SCT046 OVC055 12/10 A2985 RMK AO2 SLP111 P0006 T01180104 $

Prévision TAF périmée.



MET'MAP, la Météo Aéronautique d'un coup d'oeil ! - Copyright ORBIFLY Décembre 2007 - Disclaimer

ORBIFLY MET'MAP TEAM :

Programmation & Développement : Alexandra Zaïnal
Sur une idée originale de : Baudouin d'Aumeries
Soutien technique & logistique : Manuel Goepfert
Assistance : Marc-Olivier Méhu




SOURCES & CREDITS :

   NOAA